Time;durP1;ratioP1;P1;durP2;ratioP2;P2;SDS_P1;SDS_P2;PMS_P1;PMS_P2;Temp;Humidity;BMP_temperature;BMP_pressure;BME280_temperature;BME280_humidity;BME280_pressure;Samples;Min_cycle;Max_cycle;Signal;HPM_P1;HPM_P2
2021/07/09 00:06:05;;;;;;;6.90;3.63;;;15.00;99.90;;;;;;20917335;28;20483;-78
2021/07/09 00:16:06;;;;;;;7.37;4.00;;;15.00;99.90;;;;;;20952164;28;20046;-78
2021/07/09 00:26:08;;;;;;;6.50;3.20;;;14.90;99.90;;;;;;20946592;28;20059;-78
2021/07/09 00:36:09;;;;;;;8.77;3.57;;;14.90;99.90;;;;;;20958414;28;20037;-79
2021/07/09 00:46:10;;;;;;;7.83;3.40;;;14.90;99.90;;;;;;20934397;28;20033;-79
2021/07/09 00:56:11;;;;;;;6.40;3.70;;;14.90;99.90;;;;;;20930943;28;20835;-78
2021/07/09 01:06:13;;;;;;;9.97;3.40;;;14.90;99.90;;;;;;20956525;28;20032;-79
2021/07/09 01:16:14;;;;;;;7.88;3.17;;;14.90;99.90;;;;;;20951874;28;20466;-78
2021/07/09 01:26:15;;;;;;;5.43;3.40;;;15.00;99.90;;;;;;20968468;28;20044;-78
2021/07/09 01:36:18;;;;;;;4.23;3.20;;;15.00;99.90;;;;;;20968893;28;20523;-79
2021/07/09 01:46:19;;;;;;;4.50;2.75;;;14.90;99.90;;;;;;20966965;28;20092;-79
2021/07/09 01:56:20;;;;;;;6.53;3.70;;;15.00;99.90;;;;;;20965112;28;20097;-78
2021/07/09 02:06:20;;;;;;;6.93;3.70;;;14.90;99.90;;;;;;20967002;28;20029;-78
2021/07/09 02:16:21;;;;;;;18.37;4.77;;;14.90;99.90;;;;;;20969353;28;20057;-78
2021/07/09 02:26:22;;;;;;;14.03;4.80;;;14.90;99.90;;;;;;20965307;28;20047;-78
2021/07/09 02:36:23;;;;;;;8.53;4.80;;;14.90;99.90;;;;;;20946532;28;20079;-78
2021/07/09 02:46:24;;;;;;;6.27;4.90;;;14.80;99.90;;;;;;20959819;28;20041;-78
2021/07/09 02:56:24;;;;;;;12.97;5.43;;;14.80;99.90;;;;;;20959821;28;20047;-78
2021/07/09 03:06:25;;;;;;;9.47;5.37;;;14.80;99.90;;;;;;20942484;28;20108;-78
2021/07/09 03:16:26;;;;;;;11.37;4.80;;;14.80;99.90;;;;;;20955784;28;20031;-78
2021/07/09 03:26:27;;;;;;;11.53;5.20;;;14.80;99.90;;;;;;20954953;28;20036;-78
2021/07/09 03:36:29;;;;;;;11.07;5.27;;;14.80;99.90;;;;;;20957407;28;20033;-78
2021/07/09 03:46:29;;;;;;;11.52;5.00;;;14.70;99.90;;;;;;20957763;28;20037;-79
2021/07/09 03:56:31;;;;;;;13.27;5.30;;;14.70;99.90;;;;;;20959247;28;20190;-78
2021/07/09 04:06:32;;;;;;;12.57;4.63;;;14.70;99.90;;;;;;20961218;28;20060;-78
2021/07/09 04:16:32;;;;;;;10.23;5.23;;;14.70;99.90;;;;;;20939829;28;20033;-78
2021/07/09 04:26:34;;;;;;;5.50;3.87;;;14.80;99.90;;;;;;20960330;28;20096;-79
2021/07/09 04:36:35;;;;;;;9.70;4.50;;;14.80;99.90;;;;;;20957769;28;20463;-79
2021/07/09 04:46:36;;;;;;;7.83;4.17;;;14.80;99.90;;;;;;20935079;28;20291;-77
2021/07/09 04:56:36;;;;;;;15.63;4.53;;;14.90;99.90;;;;;;20956633;28;20039;-79
2021/07/09 05:06:37;;;;;;;5.87;4.20;;;14.90;99.90;;;;;;20956901;22;20055;-76
2021/07/09 05:16:38;;;;;;;7.13;3.57;;;15.00;99.90;;;;;;21097931;28;20024;-76
2021/07/09 05:26:39;;;;;;;4.57;3.10;;;15.10;99.90;;;;;;21085223;28;20428;-77
2021/07/09 05:36:41;;;;;;;5.70;2.67;;;15.30;99.90;;;;;;21082401;28;20028;-77
2021/07/09 05:46:42;;;;;;;5.03;2.90;;;15.90;99.90;;;;;;21100244;28;20044;-77
2021/07/09 05:56:43;;;;;;;6.97;2.47;;;16.30;99.90;;;;;;21100254;28;20017;-78
2021/07/09 06:06:44;;;;;;;9.10;1.97;;;16.40;99.90;;;;;;21097284;28;20023;-78
2021/07/09 06:16:46;;;;;;;3.40;2.13;;;16.70;99.90;;;;;;21098060;28;20024;-77
2021/07/09 06:26:46;;;;;;;;;;;17.00;99.90;;;;;;21080191;28;20062;-77
2021/07/09 06:36:47;;;;;;;8.83;2.43;;;16.60;99.90;;;;;;21096309;28;19955;-77
2021/07/09 06:46:48;;;;;;;4.57;2.47;;;16.60;99.90;;;;;;21092744;28;20034;-77
2021/07/09 06:56:49;;;;;;;3.07;2.20;;;17.00;99.90;;;;;;21057738;28;20024;-78
2021/07/09 07:06:51;;;;;;;4.90;2.17;;;17.50;99.90;;;;;;21073104;28;20052;-77
2021/07/09 07:16:52;;;;;;;3.45;2.30;;;17.50;99.90;;;;;;21051689;28;20042;-77
2021/07/09 07:26:53;;;;;;;5.23;3.10;;;17.60;99.90;;;;;;21004386;28;20028;-76
2021/07/09 07:36:54;;;;;;;4.87;2.57;;;17.60;99.90;;;;;;21073880;28;20071;-77
2021/07/09 07:46:55;;;;;;;4.53;2.00;;;17.90;99.90;;;;;;21070702;28;20036;-77
2021/07/09 07:56:57;;;;;;;5.27;2.57;;;18.00;99.90;;;;;;21080591;28;20055;-77
2021/07/09 08:06:58;;;;;;;2.85;2.25;;;18.00;99.90;;;;;;21073311;28;20032;-76
2021/07/09 08:16:59;;;;;;;3.27;2.43;;;18.70;99.90;;;;;;21054889;28;20505;-76
2021/07/09 08:26:59;;;;;;;3.37;2.10;;;18.00;99.90;;;;;;21055512;28;20069;-77
2021/07/09 08:37:00;;;;;;;4.63;2.60;;;18.40;99.90;;;;;;21052232;28;20038;-76
2021/07/09 08:47:01;;;;;;;5.37;2.40;;;19.10;99.90;;;;;;21078743;28;20036;-76
2021/07/09 08:57:03;;;;;;;6.00;2.07;;;19.50;99.90;;;;;;21090072;28;20028;-76
2021/07/09 09:07:09;;;;;;;5.60;2.20;;;20.20;99.90;;;;;;21088989;28;20402;-74
2021/07/09 09:17:32;;;;;;;4.32;2.17;;;18.90;99.90;;;;;;21088282;28;20344;-76
2021/07/09 09:27:32;;;;;;;2.45;1.52;;;20.00;99.90;;;;;;21069135;28;20026;-76
2021/07/09 09:37:33;;;;;;;5.30;2.03;;;21.00;99.90;;;;;;21077532;28;20032;-76
2021/07/09 09:47:36;;;;;;;5.37;2.27;;;22.10;99.90;;;;;;21065391;28;20135;-77
2021/07/09 09:57:38;;;;;;;6.13;1.88;;;21.70;99.90;;;;;;21063958;28;20046;-76
2021/07/09 10:07:40;;;;;;;4.53;2.00;;;22.60;99.90;;;;;;21028806;28;20064;-76
2021/07/09 10:17:41;;;;;;;2.97;1.83;;;22.30;99.90;;;;;;21063581;28;20061;-76
2021/07/09 10:27:43;;;;;;;4.67;1.77;;;21.70;99.90;;;;;;21011980;28;20025;-76
2021/07/09 10:37:43;;;;;;;5.93;1.98;;;22.10;99.90;;;;;;20994273;28;20028;-77
2021/07/09 10:47:48;;;;;;;2.27;1.60;;;22.50;99.90;;;;;;21032141;28;20028;-76
2021/07/09 10:58:07;;;;;;;5.65;1.60;;;23.10;99.90;;;;;;21038265;28;20031;-76
2021/07/09 11:08:30;;;;;;;4.00;1.52;;;22.50;99.90;;;;;;21058034;22;20059;-79
2021/07/09 11:18:46;;;;;;;3.63;1.70;;;23.40;99.90;;;;;;21078943;28;20044;-80
2021/07/09 11:28:48;;;;;;;3.05;1.48;;;23.60;99.90;;;;;;21125730;28;20085;-78
2021/07/09 11:39:09;;;;;;;3.53;1.80;;;23.90;99.90;;;;;;21138523;28;20031;-78
2021/07/09 11:49:10;;;;;;;5.93;1.73;;;22.40;99.90;;;;;;21107191;28;20408;-80
2021/07/09 11:59:16;;;;;;;2.47;1.57;;;23.90;99.90;;;;;;21049370;28;20036;-79
2021/07/09 12:09:18;;;;;;;2.33;1.58;;;23.70;99.90;;;;;;21065814;28;20065;-79
2021/07/09 12:19:19;;;;;;;1.90;1.42;;;23.80;99.90;;;;;;21062213;28;20441;-77
2021/07/09 12:29:20;;;;;;;2.27;1.53;;;23.00;99.90;;;;;;21059353;28;20052;-79
2021/07/09 12:39:23;;;;;;;4.05;1.83;;;22.90;99.90;;;;;;20890457;28;20139;-80
2021/07/09 12:49:24;;;;;;;;;;;22.90;99.90;;;;;;20920696;28;20415;-82
2021/07/09 12:59:26;;;;;;;6.70;1.50;;;22.70;99.90;;;;;;20974829;28;19943;-79
2021/07/09 13:09:32;;;;;;;3.42;1.35;;;24.00;99.90;;;;;;21000013;28;20071;-80
2021/07/09 13:19:35;;;;;;;5.07;1.92;;;24.40;99.90;;;;;;21039651;28;20521;-78
2021/07/09 13:29:36;;;;;;;2.47;1.10;;;24.10;99.90;;;;;;21059288;28;20028;-79
2021/07/09 13:39:37;;;;;;;2.45;1.40;;;23.50;99.90;;;;;;21073453;28;20234;-78
2021/07/09 13:49:38;;;;;;;1.87;1.43;;;23.90;99.90;;;;;;21053258;28;20031;-77
2021/07/09 13:59:39;;;;;;;2.97;1.70;;;24.00;99.90;;;;;;21050999;28;20047;-84
2021/07/09 14:09:43;;;;;;;2.20;1.27;;;24.10;99.90;;;;;;21040280;28;20054;-85
2021/07/09 14:19:44;;;;;;;3.30;1.60;;;25.30;99.90;;;;;;21043053;28;20032;-80
2021/07/09 14:29:45;;;;;;;4.75;2.08;;;25.00;99.90;;;;;;21070950;28;20427;-82
2021/07/09 14:39:48;;;;;;;;;;;25.50;99.90;;;;;;21057490;28;20426;-82
2021/07/09 14:49:49;;;;;;;3.40;1.30;;;24.90;99.90;;;;;;21049847;28;19916;-81
2021/07/09 14:59:50;;;;;;;;;;;25.20;99.90;;;;;;21080727;28;20032;-82
2021/07/09 15:09:51;;;;;;;1.20;1.00;;;24.90;99.90;;;;;;21045914;28;19916;-82
2021/07/09 15:19:52;;;;;;;2.40;1.00;;;25.40;99.90;;;;;;21076707;28;20035;-80
2021/07/09 15:29:53;;;;;;;2.85;1.27;;;25.60;99.90;;;;;;21059373;28;20032;-79
2021/07/09 15:39:54;;;;;;;2.22;1.05;;;25.20;99.90;;;;;;21042085;28;20032;-80
2021/07/09 15:49:55;;;;;;;1.63;1.17;;;25.00;99.90;;;;;;21077021;28;20045;-80
2021/07/09 15:59:56;;;;;;;2.50;1.40;;;24.50;99.90;;;;;;21138073;28;20039;-81
2021/07/09 16:09:57;;;;;;;1.67;1.13;;;24.10;99.90;;;;;;21115740;28;20710;-83
2021/07/09 16:20:01;;;;;;;1.43;0.90;;;24.20;99.90;;;;;;21137534;28;20036;-81
2021/07/09 16:30:04;;;;;;;1.63;1.10;;;24.00;99.90;;;;;;21118881;28;20039;-83
2021/07/09 16:40:05;;;;;;;2.25;1.10;;;23.90;99.90;;;;;;21089176;28;20040;-84
2021/07/09 16:50:07;;;;;;;5.55;1.35;;;23.70;99.90;;;;;;21088187;28;20104;-83
2021/07/09 17:00:08;;;;;;;2.28;1.25;;;23.90;99.90;;;;;;21117395;28;20048;-82
2021/07/09 17:10:09;;;;;;;;;;;23.30;99.90;;;;;;21127927;28;20043;-83
2021/07/09 17:20:10;;;;;;;4.88;1.38;;;23.70;99.90;;;;;;21103739;27;20007;-83
2021/07/09 17:30:14;;;;;;;1.35;1.00;;;23.70;99.90;;;;;;21062620;28;20605;-81
2021/07/09 17:40:16;;;;;;;2.63;1.30;;;23.30;99.90;;;;;;21092484;28;20028;-80
2021/07/09 17:50:17;;;;;;;3.55;1.15;;;23.20;99.90;;;;;;21055222;28;20119;-82
2021/07/09 18:00:19;;;;;;;;;;;23.50;99.90;;;;;;21069747;28;20042;-84
2021/07/09 18:10:20;;;;;;;1.85;1.17;;;24.30;99.90;;;;;;21064178;28;20282;-82
2021/07/09 18:20:22;;;;;;;2.20;1.00;;;25.70;99.90;;;;;;21075222;28;20678;-82
2021/07/09 18:30:24;;;;;;;3.38;1.05;;;26.20;99.90;;;;;;21075604;28;20016;-82
2021/07/09 18:40:25;;;;;;;4.18;1.20;;;25.80;99.90;;;;;;21051359;28;20096;-84
2021/07/09 18:50:27;;;;;;;2.23;1.33;;;22.40;99.90;;;;;;21072207;28;20036;-84
2021/07/09 19:00:28;;;;;;;4.95;1.33;;;21.10;99.90;;;;;;21068730;28;20040;-83
2021/07/09 19:10:29;;;;;;;4.00;1.63;;;20.30;99.90;;;;;;21071247;28;20038;-82
2021/07/09 19:20:31;;;;;;;5.43;2.13;;;19.40;99.90;;;;;;21070896;28;20046;-85
2021/07/09 19:30:36;;;;;;;3.50;2.15;;;19.00;99.90;;;;;;21054695;28;20044;-81
2021/07/09 19:40:37;;;;;;;2.42;1.95;;;18.30;99.90;;;;;;21038151;28;20061;-83
2021/07/09 19:50:39;;;;;;;3.47;2.42;;;17.90;99.90;;;;;;21036841;28;20043;-80
2021/07/09 20:00:42;;;;;;;5.88;2.38;;;17.60;99.90;;;;;;21070111;28;20391;-82
2021/07/09 20:10:45;;;;;;;4.72;2.00;;;17.80;99.90;;;;;;21031668;28;20070;-81
2021/07/09 20:20:46;;;;;;;9.10;2.72;;;17.90;99.90;;;;;;21067541;28;20042;-82
2021/07/09 20:30:47;;;;;;;3.50;2.20;;;17.40;99.90;;;;;;21032138;28;20036;-82
2021/07/09 20:40:48;;;;;;;2.93;2.13;;;17.30;99.90;;;;;;21056445;28;20040;-81
2021/07/09 20:50:49;;;;;;;9.87;2.63;;;17.30;99.90;;;;;;21085281;28;20066;-83
2021/07/09 21:00:50;;;;;;;7.50;3.40;;;17.30;99.90;;;;;;21053918;28;20035;-83
2021/07/09 21:10:56;;;;;;;7.30;2.87;;;17.10;99.90;;;;;;21063555;28;20072;-81
2021/07/09 21:20:58;;;;;;;4.80;2.92;;;16.60;99.90;;;;;;21050356;28;20542;-81
2021/07/09 21:30:59;;;;;;;7.32;3.40;;;16.60;99.90;;;;;;21067364;28;20035;-81
2021/07/09 21:41:00;;;;;;;5.63;3.30;;;16.80;99.90;;;;;;21047634;28;20101;-81
2021/07/09 21:51:01;;;;;;;11.50;3.60;;;16.70;99.90;;;;;;21110963;28;20031;-81
2021/07/09 22:01:03;;;;;;;8.30;3.30;;;16.80;99.90;;;;;;21155991;28;20570;-84
2021/07/09 22:11:05;;;;;;;7.50;3.60;;;16.60;99.90;;;;;;21179672;28;20058;-81
2021/07/09 22:21:06;;;;;;;5.97;3.33;;;15.90;99.90;;;;;;21165207;28;20043;-80
2021/07/09 22:31:08;;;;;;;6.57;3.40;;;15.90;99.90;;;;;;21188367;28;20073;-83
2021/07/09 22:41:09;;;;;;;6.75;2.58;;;16.20;99.90;;;;;;21121066;28;20032;-82
2021/07/09 22:51:10;;;;;;;5.53;2.80;;;16.10;99.90;;;;;;21116169;28;20224;-81
2021/07/09 23:01:11;;;;;;;4.50;2.87;;;16.00;99.90;;;;;;21171038;28;20034;-78
2021/07/09 23:11:13;;;;;;;7.87;5.03;;;15.70;99.90;;;;;;21204748;28;20054;-84
2021/07/09 23:21:14;;;;;;;3.55;2.92;;;15.80;99.90;;;;;;21181152;28;20435;-83
2021/07/09 23:31:14;;;;;;;5.07;3.10;;;15.70;99.90;;;;;;21147891;28;20113;-82
2021/07/09 23:41:16;;;;;;;10.20;3.43;;;15.60;99.90;;;;;;21175070;28;20031;-82
2021/07/09 23:51:18;;;;;;;7.97;3.50;;;15.10;99.90;;;;;;21107805;28;20333;-81
